createdAt,value
2018-04-16T00:00:29.666Z,11.60
2018-04-16T00:02:57.684Z,7.00
2018-04-16T00:05:25.617Z,7.90
2018-04-16T00:07:53.642Z,7.47
2018-04-16T00:10:21.648Z,22.50
2018-04-16T00:12:49.662Z,9.57
2018-04-16T00:15:17.718Z,7.90
2018-04-16T00:17:45.727Z,7.53
2018-04-16T00:20:13.701Z,13.83
2018-04-16T00:22:41.685Z,18.43
2018-04-16T00:25:09.664Z,6.63
2018-04-16T00:27:37.755Z,22.60
2018-04-16T00:30:05.797Z,13.67
2018-04-16T00:35:45.453Z,7.83
2018-04-16T00:38:19.063Z,8.67
2018-04-16T00:40:52.606Z,6.90
2018-04-16T00:43:26.149Z,13.50
2018-04-16T00:45:59.632Z,9.50
2018-04-16T00:48:32.929Z,7.73
2018-04-16T00:51:06.379Z,6.77
2018-04-16T00:56:57.750Z,11.73
2018-04-16T00:59:31.302Z,15.23
2018-04-16T01:02:04.977Z,13.00
2018-04-16T01:04:39.513Z,12.03
2018-04-16T01:07:13.106Z,7.87
2018-04-16T01:09:46.607Z,20.73
2018-04-16T01:12:20.136Z,7.67
2018-04-16T01:14:53.790Z,7.43
2018-04-16T01:17:27.305Z,10.30
2018-04-16T01:20:00.831Z,12.20
2018-04-16T01:22:34.551Z,11.57
2018-04-16T01:25:08.863Z,10.57
2018-04-16T01:27:42.413Z,6.57
2018-04-16T01:30:15.879Z,5.83
2018-04-16T01:32:49.713Z,18.13
2018-04-16T01:35:24.012Z,10.93
2018-04-16T01:37:57.543Z,7.60
2018-04-16T01:40:31.225Z,7.30
2018-04-16T01:43:04.822Z,9.13
2018-04-16T01:45:39.090Z,6.20
2018-04-16T01:48:12.588Z,8.03
2018-04-16T01:50:46.278Z,6.23
2018-04-16T01:53:19.813Z,6.03
2018-04-16T01:55:54.344Z,6.27
2018-04-16T01:58:28.024Z,15.57
2018-04-16T02:01:01.699Z,12.97
2018-04-16T02:03:35.385Z,6.33
2018-04-16T02:06:09.698Z,7.67
2018-04-16T02:08:43.297Z,9.60
2018-04-16T02:11:17.109Z,7.07
2018-04-16T02:13:50.796Z,6.93
2018-04-16T02:16:24.234Z,7.17
2018-04-16T02:18:57.649Z,10.87
2018-04-16T02:21:31.220Z,6.07
2018-04-16T02:24:04.909Z,9.63
2018-04-16T02:26:39.117Z,13.30
2018-04-16T02:29:12.638Z,10.63
2018-04-16T02:31:46.344Z,13.33
2018-04-16T02:34:20.027Z,7.00
2018-04-16T02:36:53.718Z,13.13
2018-04-16T02:39:27.414Z,17.17
2018-04-16T02:42:01.106Z,15.27
2018-04-16T02:44:34.565Z,15.93
2018-04-16T02:47:08.297Z,10.63
2018-04-16T02:49:41.945Z,14.67
2018-04-16T02:55:25.562Z,21.90
2018-04-16T02:57:59.161Z,24.47
2018-04-16T03:00:32.593Z,17.77
2018-04-16T03:03:07.030Z,34.63
2018-04-16T03:05:40.807Z,35.03
2018-04-16T03:08:14.475Z,25.93
2018-04-16T03:10:48.006Z,31.00
2018-04-16T03:13:22.432Z,28.73
2018-04-16T03:15:55.950Z,16.77
2018-04-16T03:18:29.396Z,25.43
2018-04-16T03:21:03.017Z,23.93
2018-04-16T03:23:37.609Z,16.50
2018-04-16T03:26:11.115Z,25.80
2018-04-16T03:28:44.720Z,31.30
2018-04-16T03:31:18.353Z,29.10
2018-04-16T03:33:52.898Z,15.00
2018-04-16T03:39:35.373Z,13.60
2018-04-16T03:42:08.843Z,10.70
2018-04-16T03:44:42.298Z,19.63
2018-04-16T03:47:16.069Z,14.77
2018-04-16T03:49:49.496Z,25.53
2018-04-16T03:52:22.973Z,9.67
2018-04-16T03:55:01.874Z,15.53
2018-04-16T03:57:29.837Z,18.33
2018-04-16T03:59:57.852Z,27.83
2018-04-16T04:02:25.805Z,22.93
2018-04-16T04:04:53.790Z,27.67
2018-04-16T04:07:22.292Z,25.63
2018-04-16T04:09:50.217Z,43.83
2018-04-16T04:12:18.216Z,43.87
2018-04-16T04:14:46.254Z,41.33
2018-04-16T04:17:14.290Z,49.10
2018-04-16T04:19:42.220Z,31.87
2018-04-16T04:22:10.201Z,35.10
2018-04-16T04:24:49.950Z,37.13
2018-04-16T04:27:29.653Z,40.43
2018-04-16T04:30:09.333Z,41.83
2018-04-16T04:32:37.276Z,35.23
2018-04-16T04:35:05.261Z,45.63
2018-04-16T04:37:33.250Z,42.30
2018-04-16T04:40:01.335Z,31.37
2018-04-16T04:42:29.325Z,21.23
2018-04-16T04:44:57.333Z,26.43
2018-04-16T04:47:25.294Z,16.30
2018-04-16T04:49:53.272Z,23.23
2018-04-16T04:52:21.213Z,16.60
2018-04-16T04:54:49.162Z,23.43
2018-04-16T04:57:17.162Z,19.10
2018-04-16T04:59:45.188Z,38.20
2018-04-16T05:02:13.157Z,39.87
2018-04-16T05:04:41.152Z,26.30
2018-04-16T05:07:09.209Z,43.13
2018-04-16T05:09:37.590Z,44.90
2018-04-16T05:12:05.535Z,41.17
2018-04-16T05:14:33.535Z,38.00
2018-04-16T05:17:01.537Z,52.20
2018-04-16T05:19:29.589Z,28.30
2018-04-16T05:21:57.533Z,32.20
2018-04-16T05:24:25.551Z,32.93
2018-04-16T05:26:53.538Z,34.13
2018-04-16T05:29:21.508Z,28.67
2018-04-16T05:31:49.497Z,35.03
2018-04-16T05:34:17.507Z,21.83
2018-04-16T05:36:45.525Z,25.43
2018-04-16T05:39:13.513Z,40.27
2018-04-16T05:41:41.554Z,40.47
2018-04-16T05:44:09.646Z,41.60
2018-04-16T05:46:37.639Z,49.10
2018-04-16T05:49:05.661Z,62.93
2018-04-16T05:51:33.625Z,47.77
2018-04-16T05:54:01.652Z,54.93
2018-04-16T05:56:29.602Z,45.53
2018-04-16T05:58:57.556Z,41.57
2018-04-16T06:01:25.565Z,25.63
2018-04-16T06:03:53.594Z,17.53
2018-04-16T06:06:21.557Z,12.27
2018-04-16T06:08:49.590Z,12.27
2018-04-16T06:11:17.923Z,19.23
2018-04-16T06:13:45.940Z,27.73
2018-04-16T06:16:14.005Z,21.57
2018-04-16T06:18:42.029Z,31.97
2018-04-16T06:21:10.035Z,20.57
2018-04-16T06:23:38.049Z,21.17
2018-04-16T06:26:06.146Z,17.03
2018-04-16T06:28:34.170Z,19.40
2018-04-16T06:31:02.234Z,21.33
2018-04-16T06:33:30.207Z,29.37
2018-04-16T06:35:58.241Z,22.50
2018-04-16T06:38:26.272Z,40.63
2018-04-16T06:40:54.267Z,21.40
2018-04-16T06:43:22.269Z,35.37
2018-04-16T06:45:50.194Z,29.37
2018-04-16T06:48:18.164Z,24.57
2018-04-16T06:50:46.162Z,40.20
2018-04-16T06:53:14.310Z,24.30
2018-04-16T06:55:42.355Z,26.10
2018-04-16T06:58:10.367Z,24.27
2018-04-16T07:00:38.393Z,25.67
2018-04-16T07:03:06.412Z,22.03
2018-04-16T07:05:34.405Z,55.43
2018-04-16T07:08:02.419Z,37.93
2018-04-16T07:10:30.409Z,48.97
2018-04-16T07:12:58.874Z,45.50
2018-04-16T07:15:26.832Z,35.63
2018-04-16T07:17:54.929Z,32.23
2018-04-16T07:20:22.961Z,44.40
2018-04-16T07:22:50.983Z,23.07
2018-04-16T07:25:18.971Z,25.37
2018-04-16T07:27:46.992Z,25.80
2018-04-16T07:30:14.998Z,25.33
2018-04-16T07:32:42.951Z,23.87
2018-04-16T07:35:10.932Z,11.60
2018-04-16T07:37:38.953Z,16.30
2018-04-16T07:40:06.991Z,21.57
2018-04-16T07:42:34.977Z,17.53
2018-04-16T07:45:03.067Z,16.43
2018-04-16T07:47:31.073Z,21.90
2018-04-16T07:49:59.033Z,29.53
2018-04-16T07:52:27.037Z,18.17
2018-04-16T07:54:55.078Z,18.27
2018-04-16T07:57:23.020Z,27.00
2018-04-16T07:59:51.026Z,23.30
2018-04-16T08:02:18.958Z,11.90
2018-04-16T08:04:46.948Z,15.40
2018-04-16T08:07:14.981Z,13.67
2018-04-16T08:09:42.949Z,10.37
2018-04-16T08:12:11.103Z,19.07
2018-04-16T08:14:39.520Z,14.77
2018-04-16T08:17:07.478Z,20.33
2018-04-16T08:19:35.482Z,11.43
2018-04-16T08:22:03.475Z,28.70
2018-04-16T08:24:31.495Z,19.47
2018-04-16T08:26:59.512Z,20.13
2018-04-16T08:29:27.597Z,16.20
2018-04-16T08:31:55.748Z,14.00
2018-04-16T08:34:23.719Z,16.33
2018-04-16T08:36:51.755Z,28.07
2018-04-16T08:39:19.780Z,13.07
2018-04-16T08:41:47.785Z,36.07
2018-04-16T08:44:15.823Z,22.57
2018-04-16T08:46:43.846Z,17.43
2018-04-16T08:49:11.781Z,11.93
2018-04-16T08:51:39.803Z,11.97
2018-04-16T08:54:07.750Z,11.73
2018-04-16T08:56:35.810Z,24.47
2018-04-16T08:59:03.797Z,45.33
2018-04-16T09:01:31.743Z,12.30
2018-04-16T09:03:59.693Z,11.50
2018-04-16T09:06:27.708Z,13.90
2018-04-16T09:08:55.715Z,26.27
2018-04-16T09:11:23.669Z,17.10
2018-04-16T09:13:51.846Z,17.43
2018-04-16T09:16:20.355Z,21.90
2018-04-16T09:18:48.393Z,24.60
2018-04-16T09:21:16.405Z,21.60
2018-04-16T09:23:44.359Z,25.50
2018-04-16T09:26:12.315Z,13.93
2018-04-16T09:28:40.357Z,10.03
2018-04-16T09:31:08.381Z,23.40
2018-04-16T09:33:36.424Z,23.73
2018-04-16T09:36:04.379Z,15.93
2018-04-16T09:38:32.495Z,21.70
2018-04-16T09:41:00.539Z,16.23
2018-04-16T09:43:28.621Z,10.40
2018-04-16T09:45:56.643Z,17.70
2018-04-16T09:48:24.670Z,19.50
2018-04-16T09:50:52.713Z,9.33
2018-04-16T09:53:20.695Z,25.50
2018-04-16T09:55:48.643Z,12.73
2018-04-16T09:58:16.602Z,21.70
2018-04-16T10:00:50.210Z,31.47
2018-04-16T10:03:18.246Z,27.77
2018-04-16T10:05:46.338Z,20.90
2018-04-16T10:08:14.322Z,26.53
2018-04-16T10:10:42.350Z,37.80
2018-04-16T10:13:10.478Z,26.97
2018-04-16T10:15:38.516Z,21.50
2018-04-16T10:18:06.840Z,23.87
2018-04-16T10:20:34.803Z,25.80
2018-04-16T10:23:02.811Z,28.37
2018-04-16T10:25:30.850Z,24.07
2018-04-16T10:27:58.850Z,25.77
2018-04-16T10:30:26.905Z,34.93
2018-04-16T10:32:54.943Z,14.73
2018-04-16T10:35:22.998Z,32.97
2018-04-16T10:37:50.999Z,26.83
2018-04-16T10:40:19.031Z,33.20
2018-04-16T10:42:47.038Z,29.50
2018-04-16T10:45:15.113Z,17.27
2018-04-16T10:47:43.065Z,21.20
2018-04-16T10:50:11.145Z,21.73
2018-04-16T10:52:39.148Z,17.40
2018-04-16T10:55:07.165Z,15.67
2018-04-16T10:57:35.206Z,20.17
2018-04-16T11:00:03.343Z,13.50
2018-04-16T11:02:31.340Z,11.60
2018-04-16T11:04:59.374Z,20.73
2018-04-16T11:07:27.380Z,21.97
2018-04-16T11:09:55.414Z,10.23
2018-04-16T11:12:23.419Z,18.77
2018-04-16T11:14:51.367Z,6.60
2018-04-16T11:17:19.360Z,9.07
2018-04-16T11:19:48.103Z,15.73
2018-04-16T11:22:16.073Z,7.73
2018-04-16T11:24:44.102Z,10.53
2018-04-16T11:27:12.076Z,4.80
2018-04-16T11:29:40.143Z,7.93
2018-04-16T11:32:08.145Z,6.10
2018-04-16T11:34:36.136Z,10.73
2018-04-16T11:37:04.113Z,11.63
2018-04-16T11:39:32.209Z,16.30
2018-04-16T11:42:00.356Z,11.90
2018-04-16T11:44:28.355Z,9.80
2018-04-16T11:46:56.389Z,12.87
2018-04-16T11:49:24.405Z,10.60
2018-04-16T11:51:52.489Z,13.60
2018-04-16T11:54:20.427Z,19.70
2018-04-16T11:56:48.476Z,5.63
2018-04-16T11:59:16.438Z,24.27
2018-04-16T12:01:44.455Z,18.07
2018-04-16T12:04:12.489Z,5.43
2018-04-16T12:06:40.523Z,12.77
2018-04-16T12:09:08.556Z,26.37
2018-04-16T12:11:36.782Z,14.23
2018-04-16T12:14:04.776Z,3.93
2018-04-16T12:16:32.861Z,5.17
2018-04-16T12:19:00.916Z,13.93
2018-04-16T12:21:28.981Z,15.53
2018-04-16T12:23:57.062Z,8.93
2018-04-16T12:26:24.995Z,11.40
2018-04-16T12:28:53.011Z,4.30
2018-04-16T12:31:21.069Z,10.30
2018-04-16T12:33:49.112Z,7.60
2018-04-16T12:36:17.156Z,5.60
2018-04-16T12:38:45.195Z,6.80
2018-04-16T12:41:13.204Z,11.47
2018-04-16T12:43:41.309Z,7.73
2018-04-16T12:46:09.382Z,6.30
2018-04-16T12:48:37.399Z,27.17
2018-04-16T12:51:05.388Z,10.33
2018-04-16T12:53:33.357Z,17.33
2018-04-16T12:56:01.415Z,16.20
2018-04-16T12:58:29.432Z,35.90
2018-04-16T13:00:57.503Z,36.03
2018-04-16T13:03:25.538Z,25.80
2018-04-16T13:05:53.555Z,18.93
2018-04-16T13:08:21.630Z,10.90
2018-04-16T13:10:49.616Z,9.10
2018-04-16T13:13:17.631Z,14.53
2018-04-16T13:15:45.616Z,14.70
2018-04-16T13:18:13.629Z,35.20
2018-04-16T13:20:41.679Z,12.70
2018-04-16T13:23:10.118Z,10.93
2018-04-16T13:25:38.203Z,11.63
2018-04-16T13:28:06.262Z,25.07
2018-04-16T13:30:34.284Z,17.37
2018-04-16T13:33:02.899Z,35.93
2018-04-16T13:35:30.935Z,23.03
2018-04-16T13:37:59.018Z,13.13
2018-04-16T14:27:08.462Z,36.23
2018-04-16T14:29:36.508Z,30.53
2018-04-16T14:32:05.413Z,31.33
2018-04-16T14:34:33.415Z,32.40
2018-04-16T14:37:01.438Z,18.47
2018-04-16T14:39:29.398Z,37.10
2018-04-16T14:41:57.381Z,20.03
2018-04-16T14:44:25.394Z,21.43
2018-04-16T14:46:53.456Z,25.27
2018-04-16T14:49:21.469Z,17.63
2018-04-16T14:51:49.480Z,19.80
2018-04-16T14:54:17.431Z,12.33
2018-04-16T14:56:45.424Z,10.57
2018-04-16T14:59:13.568Z,11.70
2018-04-16T15:01:41.581Z,14.97
2018-04-16T15:04:09.614Z,27.93
2018-04-16T15:06:37.664Z,18.70
2018-04-16T15:09:07.583Z,17.47
2018-04-16T15:11:35.594Z,19.30
2018-04-16T15:14:03.677Z,8.33
2018-04-16T15:16:31.724Z,14.87
2018-04-16T15:18:59.718Z,16.33
2018-04-16T15:21:27.721Z,15.43
2018-04-16T15:23:55.731Z,10.90
2018-04-16T15:26:23.877Z,12.07
2018-04-16T15:28:52.340Z,18.50
2018-04-16T15:31:20.378Z,40.43
2018-04-16T15:33:48.374Z,52.70
2018-04-16T15:36:16.296Z,36.40
2018-04-16T15:38:44.338Z,60.70
2018-04-16T15:41:12.304Z,37.70
2018-04-16T15:43:41.126Z,38.17
2018-04-16T15:46:09.151Z,47.70
2018-04-16T15:48:37.681Z,61.70
2018-04-16T15:51:06.254Z,88.57
2018-04-16T15:53:34.692Z,99.20
2018-04-16T15:56:03.220Z,79.47
2018-04-16T15:58:31.436Z,40.33
2018-04-16T16:00:59.541Z,20.87
2018-04-16T16:03:27.655Z,15.53
2018-04-16T16:05:55.715Z,31.77
2018-04-16T16:08:23.715Z,28.20
2018-04-16T16:10:51.790Z,53.33
2018-04-16T16:13:19.757Z,31.27
2018-04-16T16:15:47.822Z,24.73
2018-04-16T16:18:15.854Z,74.37
2018-04-16T16:20:43.861Z,44.53
2018-04-16T16:23:12.150Z,30.23
2018-04-16T16:25:40.150Z,29.73
2018-04-16T16:28:08.134Z,29.40
2018-04-16T16:30:36.681Z,16.43
2018-04-16T16:33:04.753Z,27.57
2018-04-16T16:35:32.751Z,15.13
2018-04-16T16:38:00.750Z,44.93
2018-04-16T16:40:28.802Z,9.87
2018-04-16T16:42:56.850Z,15.70
2018-04-16T16:45:24.936Z,14.13
2018-04-16T16:47:53.022Z,15.20
2018-04-16T16:50:21.039Z,15.67
2018-04-16T16:52:49.043Z,48.40
2018-04-16T16:55:17.140Z,46.50
2018-04-16T16:57:45.191Z,32.97
2018-04-16T17:00:13.229Z,26.03
2018-04-16T17:02:41.293Z,25.77
2018-04-16T17:05:09.314Z,32.40
2018-04-16T17:07:37.400Z,37.73
2018-04-16T17:10:05.461Z,30.17
2018-04-16T17:12:33.882Z,9.70
2018-04-16T17:15:01.926Z,29.80
2018-04-16T17:17:29.995Z,12.33
2018-04-16T17:19:57.972Z,31.20
2018-04-16T17:22:25.953Z,18.67
2018-04-16T17:24:53.984Z,25.73
2018-04-16T17:27:21.998Z,23.20
2018-04-16T17:29:49.986Z,21.03
2018-04-16T17:32:18.397Z,14.70
2018-04-16T17:34:46.448Z,17.53
2018-04-16T17:37:14.470Z,16.70
2018-04-16T17:39:42.464Z,18.60
2018-04-16T17:42:10.449Z,8.30
2018-04-16T17:44:38.410Z,7.30
2018-04-16T17:47:06.457Z,15.97
2018-04-16T17:49:34.963Z,24.07
2018-04-16T17:52:02.959Z,38.37
2018-04-16T17:54:30.981Z,23.30
2018-04-16T17:56:58.966Z,11.03
2018-04-16T17:59:27.024Z,9.67
2018-04-16T18:01:55.074Z,12.03
2018-04-16T18:04:23.095Z,27.73
2018-04-16T18:06:51.194Z,17.80
2018-04-16T18:09:19.229Z,15.77
2018-04-16T18:11:47.239Z,36.60
2018-04-16T18:14:15.400Z,16.70
2018-04-16T18:16:43.401Z,20.67
2018-04-16T18:19:11.448Z,17.37
2018-04-16T18:21:39.505Z,26.47
2018-04-16T18:24:07.573Z,18.17
2018-04-16T18:26:35.606Z,15.13
2018-04-16T18:29:03.658Z,13.13
2018-04-16T18:31:31.673Z,14.53
2018-04-16T18:34:00.011Z,16.47
2018-04-16T18:36:28.081Z,17.27
2018-04-16T18:38:56.163Z,14.33
2018-04-16T18:41:24.201Z,19.73
2018-04-16T18:43:52.217Z,10.93
2018-04-16T18:46:20.249Z,13.57
2018-04-16T18:48:48.208Z,11.37
2018-04-16T18:51:16.295Z,13.20
2018-04-16T18:53:44.297Z,20.47
2018-04-16T18:56:12.287Z,19.07
2018-04-16T18:58:40.348Z,13.80
2018-04-16T19:01:08.447Z,18.77
2018-04-16T19:03:36.479Z,14.23
2018-04-16T19:06:04.693Z,20.23
2018-04-16T19:08:32.736Z,16.50
2018-04-16T19:11:00.746Z,23.03
2018-04-16T19:13:28.732Z,20.77
2018-04-16T19:15:56.966Z,14.77
2018-04-16T19:18:24.945Z,15.43
2018-04-16T19:20:58.650Z,15.50
2018-04-16T19:23:26.782Z,8.67
2018-04-16T19:25:54.818Z,16.60
2018-04-16T19:28:22.785Z,8.83
2018-04-16T19:30:50.872Z,17.20
2018-04-16T19:33:24.433Z,11.43
2018-04-16T19:35:53.060Z,21.73
2018-04-16T19:38:21.042Z,8.77
2018-04-16T19:40:49.061Z,14.63
2018-04-16T19:43:17.066Z,22.50
2018-04-16T19:45:45.165Z,29.27
2018-04-16T19:48:13.206Z,25.43
2018-04-16T19:50:41.301Z,17.03
2018-04-16T19:53:09.338Z,7.13
2018-04-16T19:55:43.024Z,8.17
2018-04-16T19:58:16.717Z,13.33
2018-04-16T20:00:44.766Z,15.77
2018-04-16T20:03:18.395Z,12.37
2018-04-16T20:05:46.603Z,16.50
2018-04-16T20:08:14.772Z,21.70
2018-04-16T20:10:42.827Z,12.20
2018-04-16T20:13:10.864Z,13.57
2018-04-16T20:15:38.867Z,10.40
2018-04-16T20:18:06.827Z,15.23
2018-04-16T20:20:34.849Z,24.30
2018-04-16T20:23:02.901Z,7.80
2018-04-16T20:25:30.873Z,24.17
2018-04-16T20:27:58.886Z,14.07
2018-04-16T20:30:26.878Z,11.10
2018-04-16T20:32:54.885Z,15.13
2018-04-16T20:35:22.911Z,14.60
2018-04-16T20:37:51.188Z,10.33
2018-04-16T20:40:19.162Z,21.33
2018-04-16T20:42:47.227Z,19.20
2018-04-16T20:45:15.222Z,26.17
2018-04-16T20:47:43.279Z,27.13
2018-04-16T20:50:11.341Z,26.43
2018-04-16T20:52:39.442Z,23.97
2018-04-16T20:55:07.528Z,29.57
2018-04-16T20:57:35.549Z,31.57
2018-04-16T21:00:03.713Z,14.20
2018-04-16T21:02:31.710Z,19.40
2018-04-16T21:04:59.730Z,19.80
2018-04-16T21:07:27.777Z,15.30
2018-04-16T21:09:55.824Z,25.00
2018-04-16T21:12:23.838Z,15.13
2018-04-16T21:14:51.846Z,33.83
2018-04-16T21:17:19.878Z,21.57
2018-04-16T21:19:47.896Z,11.57
2018-04-16T21:22:15.896Z,8.53
2018-04-16T21:24:43.877Z,13.40
2018-04-16T21:27:11.929Z,9.17
2018-04-16T21:29:39.992Z,14.50
2018-04-16T21:32:07.998Z,25.90
2018-04-16T21:34:36.047Z,25.57
2018-04-16T21:37:04.061Z,23.30
2018-04-16T21:39:32.604Z,17.80
2018-04-16T21:42:00.608Z,30.00
2018-04-16T21:44:28.602Z,28.87
2018-04-16T21:46:56.646Z,31.63
2018-04-16T21:49:24.636Z,21.13
2018-04-16T21:51:52.680Z,22.90
2018-04-16T21:54:20.673Z,30.17
2018-04-16T21:56:48.764Z,16.47
2018-04-16T21:59:16.768Z,32.73
2018-04-16T22:01:44.732Z,16.83
2018-04-16T22:04:12.749Z,16.20
2018-04-16T22:06:40.732Z,13.23
2018-04-16T22:09:08.784Z,18.20
2018-04-16T22:11:36.788Z,11.27
2018-04-16T22:14:04.844Z,11.90
2018-04-16T22:16:32.935Z,24.50
2018-04-16T22:19:00.954Z,20.80
2018-04-16T22:21:28.993Z,23.10
2018-04-16T22:23:56.982Z,13.73
2018-04-16T22:26:25.006Z,18.73
2018-04-16T22:28:53.118Z,21.23
2018-04-16T22:31:21.153Z,23.70
2018-04-16T22:33:49.219Z,9.43
2018-04-16T22:36:17.269Z,13.23
2018-04-16T22:38:45.307Z,30.17
2018-04-16T22:41:13.650Z,11.97
2018-04-16T22:43:41.651Z,16.83
2018-04-16T22:46:09.695Z,24.00
2018-04-16T22:48:37.723Z,19.43
2018-04-16T22:51:05.722Z,23.37
2018-04-16T22:53:33.731Z,13.40
2018-04-16T22:56:01.828Z,9.80
2018-04-16T22:58:29.879Z,9.70
2018-04-16T23:00:57.857Z,21.47
2018-04-16T23:03:25.840Z,17.23
2018-04-16T23:05:53.860Z,5.93
2018-04-16T23:08:21.872Z,15.83
2018-04-16T23:10:49.906Z,14.83
2018-04-16T23:13:17.874Z,8.10
2018-04-16T23:15:45.864Z,12.93
2018-04-16T23:18:13.893Z,9.00
2018-04-16T23:20:41.939Z,20.07
2018-04-16T23:23:09.906Z,8.87
2018-04-16T23:25:37.883Z,23.00
2018-04-16T23:28:05.927Z,15.40
2018-04-16T23:30:33.909Z,18.60
2018-04-16T23:33:01.955Z,20.27
2018-04-16T23:35:29.965Z,17.03
2018-04-16T23:37:58.037Z,15.20
2018-04-16T23:40:26.030Z,22.73
2018-04-16T23:42:54.405Z,15.50
2018-04-16T23:45:22.429Z,26.53
2018-04-16T23:47:50.387Z,16.50
2018-04-16T23:50:18.378Z,9.73
2018-04-16T23:52:46.397Z,9.57
2018-04-16T23:55:14.340Z,11.37
2018-04-16T23:57:42.355Z,11.53
